sensor_id;sensor_type;location;lat;lon;timestamp;temperature;humidity
7248;DHT22;3665;51.034;13.642;2023-06-22T00:04:15;19.00;1.00
7248;DHT22;3665;51.034;13.642;2023-06-22T00:09:05;18.90;1.00
7248;DHT22;3665;51.034;13.642;2023-06-22T00:13:50;18.80;1.00
7248;DHT22;3665;51.034;13.642;2023-06-22T00:18:39;18.70;1.00
7248;DHT22;3665;51.034;13.642;2023-06-22T00:23:29;18.70;1.00
7248;DHT22;3665;51.034;13.642;2023-06-22T00:28:16;18.60;1.00
7248;DHT22;3665;51.034;13.642;2023-06-22T00:33:03;18.50;1.00
7248;DHT22;3665;51.034;13.642;2023-06-22T00:37:51;18.50;2.50
7248;DHT22;3665;51.034;13.642;2023-06-22T00:42:46;18.40;1.00
7248;DHT22;3665;51.034;13.642;2023-06-22T00:47:32;18.40;13.00
7248;DHT22;3665;51.034;13.642;2023-06-22T00:52:30;18.30;26.30
7248;DHT22;3665;51.034;13.642;2023-06-22T00:57:20;18.20;26.50
7248;DHT22;3665;51.034;13.642;2023-06-22T01:02:06;18.30;12.00
7248;DHT22;3665;51.034;13.642;2023-06-22T01:07:04;18.30;1.80
7248;DHT22;3665;51.034;13.642;2023-06-22T01:11:56;18.30;37.30
7248;DHT22;3665;51.034;13.642;2023-06-22T01:16:50;18.30;11.50
7248;DHT22;3665;51.034;13.642;2023-06-22T01:21:35;18.20;1.40
7248;DHT22;3665;51.034;13.642;2023-06-22T01:26:32;18.00;20.60
7248;DHT22;3665;51.034;13.642;2023-06-22T01:31:24;17.90;52.10
7248;DHT22;3665;51.034;13.642;2023-06-22T01:36:09;17.70;99.90
7248;DHT22;3665;51.034;13.642;2023-06-22T01:41:04;17.70;99.90
7248;DHT22;3665;51.034;13.642;2023-06-22T01:45:48;17.80;1.00
7248;DHT22;3665;51.034;13.642;2023-06-22T01:50:43;17.80;1.00
7248;DHT22;3665;51.034;13.642;2023-06-22T01:55:27;17.80;1.00
7248;DHT22;3665;51.034;13.642;2023-06-22T02:00:18;17.80;1.00
7248;DHT22;3665;51.034;13.642;2023-06-22T02:05:05;17.90;1.00
7248;DHT22;3665;51.034;13.642;2023-06-22T02:10:00;17.80;1.00
7248;DHT22;3665;51.034;13.642;2023-06-22T02:14:49;17.80;1.00
7248;DHT22;3665;51.034;13.642;2023-06-22T02:19:36;17.80;1.00
7248;DHT22;3665;51.034;13.642;2023-06-22T02:24:19;17.80;1.00
7248;DHT22;3665;51.034;13.642;2023-06-22T02:29:14;17.80;99.90
7248;DHT22;3665;51.034;13.642;2023-06-22T02:34:00;17.90;99.90
7248;DHT22;3665;51.034;13.642;2023-06-22T02:38:49;17.80;99.90
7248;DHT22;3665;51.034;13.642;2023-06-22T02:43:35;17.70;99.90
7248;DHT22;3665;51.034;13.642;2023-06-22T02:48:27;17.70;99.90
7248;DHT22;3665;51.034;13.642;2023-06-22T02:53:11;17.70;99.90
7248;DHT22;3665;51.034;13.642;2023-06-22T02:58:00;17.60;99.90
7248;DHT22;3665;51.034;13.642;2023-06-22T03:02:49;17.60;99.90
7248;DHT22;3665;51.034;13.642;2023-06-22T03:07:35;17.60;99.90
7248;DHT22;3665;51.034;13.642;2023-06-22T03:12:22;17.80;99.90
7248;DHT22;3665;51.034;13.642;2023-06-22T03:17:10;17.70;99.90
7248;DHT22;3665;51.034;13.642;2023-06-22T03:21:56;17.80;99.90
7248;DHT22;3665;51.034;13.642;2023-06-22T03:26:52;17.80;99.90
7248;DHT22;3665;51.034;13.642;2023-06-22T03:31:36;17.90;99.90
7248;DHT22;3665;51.034;13.642;2023-06-22T03:36:23;18.00;99.90
7248;DHT22;3665;51.034;13.642;2023-06-22T03:41:10;18.10;99.90
7248;DHT22;3665;51.034;13.642;2023-06-22T03:46:08;18.10;99.90
7248;DHT22;3665;51.034;13.642;2023-06-22T03:51:05;18.20;99.90
7248;DHT22;3665;51.034;13.642;2023-06-22T03:55:52;18.40;99.90
7248;DHT22;3665;51.034;13.642;2023-06-22T04:00:39;18.50;77.60
7248;DHT22;3665;51.034;13.642;2023-06-22T04:05:29;18.60;18.40
7248;DHT22;3665;51.034;13.642;2023-06-22T04:10:15;18.70;1.00
7248;DHT22;3665;51.034;13.642;2023-06-22T04:15:00;18.80;1.00
7248;DHT22;3665;51.034;13.642;2023-06-22T04:19:50;18.90;1.00
7248;DHT22;3665;51.034;13.642;2023-06-22T04:24:47;19.00;1.00
7248;DHT22;3665;51.034;13.642;2023-06-22T04:29:44;19.30;1.00
7248;DHT22;3665;51.034;13.642;2023-06-22T04:34:31;19.60;1.00
7248;DHT22;3665;51.034;13.642;2023-06-22T04:39:15;19.80;1.00
7248;DHT22;3665;51.034;13.642;2023-06-22T04:44:08;20.00;1.00
7248;DHT22;3665;51.034;13.642;2023-06-22T04:48:58;20.30;1.00
7248;DHT22;3665;51.034;13.642;2023-06-22T04:53:43;20.60;1.00
7248;DHT22;3665;51.034;13.642;2023-06-22T04:58:33;21.10;1.00
7248;DHT22;3665;51.034;13.642;2023-06-22T05:03:19;21.20;1.00
7248;DHT22;3665;51.034;13.642;2023-06-22T05:08:09;21.40;1.00
7248;DHT22;3665;51.034;13.642;2023-06-22T05:12:53;21.30;1.00
7248;DHT22;3665;51.034;13.642;2023-06-22T05:17:42;21.70;1.00
7248;DHT22;3665;51.034;13.642;2023-06-22T05:22:34;21.80;1.00
7248;DHT22;3665;51.034;13.642;2023-06-22T05:27:20;22.50;1.00
7248;DHT22;3665;51.034;13.642;2023-06-22T05:32:06;22.90;1.00
7248;DHT22;3665;51.034;13.642;2023-06-22T05:36:56;23.20;1.00
7248;DHT22;3665;51.034;13.642;2023-06-22T05:41:44;23.80;1.00
7248;DHT22;3665;51.034;13.642;2023-06-22T05:46:29;24.30;1.00
7248;DHT22;3665;51.034;13.642;2023-06-22T05:51:20;24.60;1.00
7248;DHT22;3665;51.034;13.642;2023-06-22T05:56:08;24.90;1.00
7248;DHT22;3665;51.034;13.642;2023-06-22T06:00:56;25.10;1.00
7248;DHT22;3665;51.034;13.642;2023-06-22T06:05:46;25.20;1.00
7248;DHT22;3665;51.034;13.642;2023-06-22T06:10:35;25.30;1.00
7248;DHT22;3665;51.034;13.642;2023-06-22T06:15:19;25.60;1.00
7248;DHT22;3665;51.034;13.642;2023-06-22T06:20:12;25.90;1.00
7248;DHT22;3665;51.034;13.642;2023-06-22T06:24:55;26.40;1.00
7248;DHT22;3665;51.034;13.642;2023-06-22T06:29:44;26.40;1.00
7248;DHT22;3665;51.034;13.642;2023-06-22T06:34:33;26.20;1.00
7248;DHT22;3665;51.034;13.642;2023-06-22T06:39:20;25.90;1.00
7248;DHT22;3665;51.034;13.642;2023-06-22T06:44:10;25.70;1.00
7248;DHT22;3665;51.034;13.642;2023-06-22T06:48:55;25.60;1.00
7248;DHT22;3665;51.034;13.642;2023-06-22T06:53:45;25.40;1.00
7248;DHT22;3665;51.034;13.642;2023-06-22T06:58:32;25.70;1.00
7248;DHT22;3665;51.034;13.642;2023-06-22T07:03:21;26.30;1.00
7248;DHT22;3665;51.034;13.642;2023-06-22T07:08:08;26.80;1.00
7248;DHT22;3665;51.034;13.642;2023-06-22T07:12:54;26.90;1.00
7248;DHT22;3665;51.034;13.642;2023-06-22T07:17:43;27.20;1.00
7248;DHT22;3665;51.034;13.642;2023-06-22T07:22:27;27.60;1.00
7248;DHT22;3665;51.034;13.642;2023-06-22T07:27:21;28.10;1.00
7248;DHT22;3665;51.034;13.642;2023-06-22T07:32:13;28.40;1.00
7248;DHT22;3665;51.034;13.642;2023-06-22T07:36:58;28.90;1.00
7248;DHT22;3665;51.034;13.642;2023-06-22T07:41:43;28.70;1.00
7248;DHT22;3665;51.034;13.642;2023-06-22T07:46:36;29.00;1.00
7248;DHT22;3665;51.034;13.642;2023-06-22T07:51:19;29.10;1.00
7248;DHT22;3665;51.034;13.642;2023-06-22T07:56:23;29.20;1.00
7248;DHT22;3665;51.034;13.642;2023-06-22T08:01:07;29.80;1.00
7248;DHT22;3665;51.034;13.642;2023-06-22T08:05:51;30.10;1.00
7248;DHT22;3665;51.034;13.642;2023-06-22T08:10:39;29.90;1.00
7248;DHT22;3665;51.034;13.642;2023-06-22T08:15:38;30.00;1.00
7248;DHT22;3665;51.034;13.642;2023-06-22T08:20:22;30.60;1.00
7248;DHT22;3665;51.034;13.642;2023-06-22T08:25:13;30.60;1.00
7248;DHT22;3665;51.034;13.642;2023-06-22T08:30:00;30.50;1.00
7248;DHT22;3665;51.034;13.642;2023-06-22T08:34:47;30.90;1.00
7248;DHT22;3665;51.034;13.642;2023-06-22T08:39:37;31.20;1.00
7248;DHT22;3665;51.034;13.642;2023-06-22T08:44:25;31.20;1.00
7248;DHT22;3665;51.034;13.642;2023-06-22T08:49:11;31.50;1.00
7248;DHT22;3665;51.034;13.642;2023-06-22T08:54:00;31.70;1.00
7248;DHT22;3665;51.034;13.642;2023-06-22T08:58:48;32.20;1.00
7248;DHT22;3665;51.034;13.642;2023-06-22T09:03:37;32.20;1.00
7248;DHT22;3665;51.034;13.642;2023-06-22T09:08:22;32.60;1.00
7248;DHT22;3665;51.034;13.642;2023-06-22T09:13:12;32.50;1.00
7248;DHT22;3665;51.034;13.642;2023-06-22T09:18:00;32.60;1.00
7248;DHT22;3665;51.034;13.642;2023-06-22T09:23:04;32.40;1.00
7248;DHT22;3665;51.034;13.642;2023-06-22T09:27:51;32.40;1.00
7248;DHT22;3665;51.034;13.642;2023-06-22T09:32:44;32.40;1.00
7248;DHT22;3665;51.034;13.642;2023-06-22T09:37:28;32.80;1.00
7248;DHT22;3665;51.034;13.642;2023-06-22T09:42:17;33.00;1.00
7248;DHT22;3665;51.034;13.642;2023-06-22T09:47:05;32.80;1.00
7248;DHT22;3665;51.034;13.642;2023-06-22T09:51:52;33.40;1.00
7248;DHT22;3665;51.034;13.642;2023-06-22T09:56:42;33.00;1.00
7248;DHT22;3665;51.034;13.642;2023-06-22T10:01:28;33.10;1.00
7248;DHT22;3665;51.034;13.642;2023-06-22T10:06:16;33.00;1.00
7248;DHT22;3665;51.034;13.642;2023-06-22T10:11:04;33.60;1.00
7248;DHT22;3665;51.034;13.642;2023-06-22T10:15:47;34.40;1.00
7248;DHT22;3665;51.034;13.642;2023-06-22T10:20:42;33.90;1.00
7248;DHT22;3665;51.034;13.642;2023-06-22T10:25:27;34.60;1.00
7248;DHT22;3665;51.034;13.642;2023-06-22T10:30:20;34.60;1.00
7248;DHT22;3665;51.034;13.642;2023-06-22T10:35:05;34.60;1.00
7248;DHT22;3665;51.034;13.642;2023-06-22T10:39:52;34.80;1.00
7248;DHT22;3665;51.034;13.642;2023-06-22T10:44:43;34.50;1.00
7248;DHT22;3665;51.034;13.642;2023-06-22T10:49:28;34.40;1.00
7248;DHT22;3665;51.034;13.642;2023-06-22T10:54:18;34.60;1.00
7248;DHT22;3665;51.034;13.642;2023-06-22T10:59:03;34.70;1.00
7248;DHT22;3665;51.034;13.642;2023-06-22T11:03:51;33.70;1.00
7248;DHT22;3665;51.034;13.642;2023-06-22T11:08:45;33.10;1.00
7248;DHT22;3665;51.034;13.642;2023-06-22T11:14:00;34.20;1.00
7248;DHT22;3665;51.034;13.642;2023-06-22T11:18:48;35.00;1.00
7248;DHT22;3665;51.034;13.642;2023-06-22T11:23:39;34.60;1.00
7248;DHT22;3665;51.034;13.642;2023-06-22T11:28:23;34.10;1.00
7248;DHT22;3665;51.034;13.642;2023-06-22T11:33:07;34.10;1.00
7248;DHT22;3665;51.034;13.642;2023-06-22T11:37:52;33.30;1.00
7248;DHT22;3665;51.034;13.642;2023-06-22T11:42:51;33.40;1.00
7248;DHT22;3665;51.034;13.642;2023-06-22T11:47:35;34.00;1.00
7248;DHT22;3665;51.034;13.642;2023-06-22T11:52:27;34.10;1.00
7248;DHT22;3665;51.034;13.642;2023-06-22T11:57:13;34.10;1.00
7248;DHT22;3665;51.034;13.642;2023-06-22T12:02:15;33.50;1.00
7248;DHT22;3665;51.034;13.642;2023-06-22T12:07:03;33.30;1.00
7248;DHT22;3665;51.034;13.642;2023-06-22T12:11:52;34.00;1.00
7248;DHT22;3665;51.034;13.642;2023-06-22T12:16:39;33.70;1.00
7248;DHT22;3665;51.034;13.642;2023-06-22T12:21:32;33.10;1.00
7248;DHT22;3665;51.034;13.642;2023-06-22T12:26:16;33.20;1.00
7248;DHT22;3665;51.034;13.642;2023-06-22T12:31:03;34.00;1.00
7248;DHT22;3665;51.034;13.642;2023-06-22T12:35:53;34.90;1.00
7248;DHT22;3665;51.034;13.642;2023-06-22T12:40:41;35.50;1.00
7248;DHT22;3665;51.034;13.642;2023-06-22T12:45:28;35.90;1.00
7248;DHT22;3665;51.034;13.642;2023-06-22T12:50:31;35.90;1.00
7248;DHT22;3665;51.034;13.642;2023-06-22T12:55:21;36.00;1.00
7248;DHT22;3665;51.034;13.642;2023-06-22T13:00:16;36.20;1.00
7248;DHT22;3665;51.034;13.642;2023-06-22T13:05:12;35.40;1.00
7248;DHT22;3665;51.034;13.642;2023-06-22T13:10:02;35.70;1.00
7248;DHT22;3665;51.034;13.642;2023-06-22T13:14:48;35.50;1.00
7248;DHT22;3665;51.034;13.642;2023-06-22T13:19:53;35.70;1.00
7248;DHT22;3665;51.034;13.642;2023-06-22T13:24:41;35.50;1.00
7248;DHT22;3665;51.034;13.642;2023-06-22T13:29:28;34.70;1.00
7248;DHT22;3665;51.034;13.642;2023-06-22T13:34:15;34.90;1.00
7248;DHT22;3665;51.034;13.642;2023-06-22T13:39:04;35.30;1.00
7248;DHT22;3665;51.034;13.642;2023-06-22T13:43:53;35.40;1.00
7248;DHT22;3665;51.034;13.642;2023-06-22T13:48:39;35.70;1.00
7248;DHT22;3665;51.034;13.642;2023-06-22T13:53:48;36.20;1.00
7248;DHT22;3665;51.034;13.642;2023-06-22T13:58:52;35.90;1.00
7248;DHT22;3665;51.034;13.642;2023-06-22T14:03:43;35.50;1.00
7248;DHT22;3665;51.034;13.642;2023-06-22T14:08:29;35.30;1.00
7248;DHT22;3665;51.034;13.642;2023-06-22T14:13:32;34.70;1.00
7248;DHT22;3665;51.034;13.642;2023-06-22T14:18:20;34.50;1.00
7248;DHT22;3665;51.034;13.642;2023-06-22T14:23:04;34.00;1.00
7248;DHT22;3665;51.034;13.642;2023-06-22T14:27:50;34.20;1.00
7248;DHT22;3665;51.034;13.642;2023-06-22T14:33:00;34.40;1.00
7248;DHT22;3665;51.034;13.642;2023-06-22T14:37:57;34.60;1.00
7248;DHT22;3665;51.034;13.642;2023-06-22T14:42:54;34.80;1.00
7248;DHT22;3665;51.034;13.642;2023-06-22T14:47:40;34.90;1.00
7248;DHT22;3665;51.034;13.642;2023-06-22T14:52:30;34.80;1.00
7248;DHT22;3665;51.034;13.642;2023-06-22T14:57:17;35.10;1.00
7248;DHT22;3665;51.034;13.642;2023-06-22T15:02:02;35.40;1.00
7248;DHT22;3665;51.034;13.642;2023-06-22T15:06:57;35.20;1.00
7248;DHT22;3665;51.034;13.642;2023-06-22T15:11:40;35.20;1.00
7248;DHT22;3665;51.034;13.642;2023-06-22T15:16:33;34.40;1.00
7248;DHT22;3665;51.034;13.642;2023-06-22T15:21:17;34.50;1.00
7248;DHT22;3665;51.034;13.642;2023-06-22T15:26:06;34.70;1.00
7248;DHT22;3665;51.034;13.642;2023-06-22T15:30:52;34.40;1.00
7248;DHT22;3665;51.034;13.642;2023-06-22T15:35:45;34.10;1.00
7248;DHT22;3665;51.034;13.642;2023-06-22T15:40:29;33.80;1.00
7248;DHT22;3665;51.034;13.642;2023-06-22T15:45:13;33.50;1.00
7248;DHT22;3665;51.034;13.642;2023-06-22T15:50:13;33.40;1.00
7248;DHT22;3665;51.034;13.642;2023-06-22T15:55:09;33.30;1.00
7248;DHT22;3665;51.034;13.642;2023-06-22T15:59:56;33.20;1.00
7248;DHT22;3665;51.034;13.642;2023-06-22T16:04:44;33.00;1.00
7248;DHT22;3665;51.034;13.642;2023-06-22T16:09:35;32.50;1.00
7248;DHT22;3665;51.034;13.642;2023-06-22T16:14:21;32.40;1.00
7248;DHT22;3665;51.034;13.642;2023-06-22T16:19:09;32.40;1.00
7248;DHT22;3665;51.034;13.642;2023-06-22T16:23:56;32.30;1.00
7248;DHT22;3665;51.034;13.642;2023-06-22T16:28:40;31.60;1.00
7248;DHT22;3665;51.034;13.642;2023-06-22T16:33:37;31.20;1.00
7248;DHT22;3665;51.034;13.642;2023-06-22T16:38:20;31.10;1.00
7248;DHT22;3665;51.034;13.642;2023-06-22T16:43:10;31.10;1.00
7248;DHT22;3665;51.034;13.642;2023-06-22T16:47:56;31.40;1.00
7248;DHT22;3665;51.034;13.642;2023-06-22T16:52:43;31.60;1.00
7248;DHT22;3665;51.034;13.642;2023-06-22T16:57:33;31.60;1.00
7248;DHT22;3665;51.034;13.642;2023-06-22T17:02:24;31.50;1.00
7248;DHT22;3665;51.034;13.642;2023-06-22T17:07:11;31.30;1.00
7248;DHT22;3665;51.034;13.642;2023-06-22T17:11:59;31.00;1.00
7248;DHT22;3665;51.034;13.642;2023-06-22T17:16:45;30.70;1.00
7248;DHT22;3665;51.034;13.642;2023-06-22T17:21:30;30.20;1.00
7248;DHT22;3665;51.034;13.642;2023-06-22T17:26:16;29.90;1.00
7248;DHT22;3665;51.034;13.642;2023-06-22T17:31:10;29.70;1.00
7248;DHT22;3665;51.034;13.642;2023-06-22T17:36:02;29.40;1.00
7248;DHT22;3665;51.034;13.642;2023-06-22T17:40:46;29.30;1.00
7248;DHT22;3665;51.034;13.642;2023-06-22T17:45:32;29.10;1.00
7248;DHT22;3665;51.034;13.642;2023-06-22T17:50:25;28.90;1.00
7248;DHT22;3665;51.034;13.642;2023-06-22T17:55:09;28.40;1.00
7248;DHT22;3665;51.034;13.642;2023-06-22T17:59:56;28.10;1.00
7248;DHT22;3665;51.034;13.642;2023-06-22T18:04:49;27.90;1.00
7248;DHT22;3665;51.034;13.642;2023-06-22T18:09:36;27.60;1.00
7248;DHT22;3665;51.034;13.642;2023-06-22T18:14:20;27.40;1.00
7248;DHT22;3665;51.034;13.642;2023-06-22T18:19:08;27.30;1.00
7248;DHT22;3665;51.034;13.642;2023-06-22T18:24:02;27.10;1.00
7248;DHT22;3665;51.034;13.642;2023-06-22T18:28:49;26.90;1.00
7248;DHT22;3665;51.034;13.642;2023-06-22T18:33:33;26.80;1.00
7248;DHT22;3665;51.034;13.642;2023-06-22T18:38:20;26.80;1.00
7248;DHT22;3665;51.034;13.642;2023-06-22T18:43:09;26.70;1.00
7248;DHT22;3665;51.034;13.642;2023-06-22T18:48:01;26.60;1.00
7248;DHT22;3665;51.034;13.642;2023-06-22T18:53:01;26.50;1.00
7248;DHT22;3665;51.034;13.642;2023-06-22T18:58:12;26.30;1.00
7248;DHT22;3665;51.034;13.642;2023-06-22T19:03:28;26.20;1.00
7248;DHT22;3665;51.034;13.642;2023-06-22T19:08:13;26.10;1.00
7248;DHT22;3665;51.034;13.642;2023-06-22T19:12:58;26.00;1.00
7248;DHT22;3665;51.034;13.642;2023-06-22T19:18:04;25.90;1.00
7248;DHT22;3665;51.034;13.642;2023-06-22T19:23:27;25.80;1.00
7248;DHT22;3665;51.034;13.642;2023-06-22T19:28:14;25.60;1.00
7248;DHT22;3665;51.034;13.642;2023-06-22T19:33:02;25.60;1.00
7248;DHT22;3665;51.034;13.642;2023-06-22T19:37:50;25.60;1.00
7248;DHT22;3665;51.034;13.642;2023-06-22T19:42:38;25.50;1.00
7248;DHT22;3665;51.034;13.642;2023-06-22T19:47:28;25.40;1.00
7248;DHT22;3665;51.034;13.642;2023-06-22T19:52:12;25.30;1.00
7248;DHT22;3665;51.034;13.642;2023-06-22T19:57:03;25.20;1.00
7248;DHT22;3665;51.034;13.642;2023-06-22T20:01:51;25.10;1.00
7248;DHT22;3665;51.034;13.642;2023-06-22T20:06:37;25.10;1.00
7248;DHT22;3665;51.034;13.642;2023-06-22T20:11:24;25.00;1.00
7248;DHT22;3665;51.034;13.642;2023-06-22T20:16:16;24.90;1.00
7248;DHT22;3665;51.034;13.642;2023-06-22T20:21:02;25.00;1.00
7248;DHT22;3665;51.034;13.642;2023-06-22T20:25:49;24.90;1.00
7248;DHT22;3665;51.034;13.642;2023-06-22T20:30:36;24.80;1.00
7248;DHT22;3665;51.034;13.642;2023-06-22T20:35:28;24.90;1.00
7248;DHT22;3665;51.034;13.642;2023-06-22T20:40:29;24.90;1.00
7248;DHT22;3665;51.034;13.642;2023-06-22T20:45:19;24.90;1.00
7248;DHT22;3665;51.034;13.642;2023-06-22T20:50:05;24.80;1.00
7248;DHT22;3665;51.034;13.642;2023-06-22T20:54:53;24.70;1.00
7248;DHT22;3665;51.034;13.642;2023-06-22T20:59:42;24.70;1.00
7248;DHT22;3665;51.034;13.642;2023-06-22T21:04:47;24.60;1.00
7248;DHT22;3665;51.034;13.642;2023-06-22T21:09:33;24.50;1.00
7248;DHT22;3665;51.034;13.642;2023-06-22T21:14:39;24.50;1.00
7248;DHT22;3665;51.034;13.642;2023-06-22T21:19:25;24.30;1.00
7248;DHT22;3665;51.034;13.642;2023-06-22T21:24:13;24.10;1.00
7248;DHT22;3665;51.034;13.642;2023-06-22T21:29:00;24.00;1.00
7248;DHT22;3665;51.034;13.642;2023-06-22T21:33:53;24.00;1.00
7248;DHT22;3665;51.034;13.642;2023-06-22T21:38:36;23.70;1.00
7248;DHT22;3665;51.034;13.642;2023-06-22T21:43:25;23.60;1.00
7248;DHT22;3665;51.034;13.642;2023-06-22T21:48:10;23.40;1.00
7248;DHT22;3665;51.034;13.642;2023-06-22T21:53:05;22.90;1.00
7248;DHT22;3665;51.034;13.642;2023-06-22T21:57:49;22.60;1.00
7248;DHT22;3665;51.034;13.642;2023-06-22T22:02:38;22.50;10.50
7248;DHT22;3665;51.034;13.642;2023-06-22T22:07:26;22.40;16.20
7248;DHT22;3665;51.034;13.642;2023-06-22T22:12:14;22.30;99.90
7248;DHT22;3665;51.034;13.642;2023-06-22T22:17:01;22.10;99.90
7248;DHT22;3665;51.034;13.642;2023-06-22T22:21:50;22.10;99.90
7248;DHT22;3665;51.034;13.642;2023-06-22T22:43:25;21.70;1.00
7248;DHT22;3665;51.034;13.642;2023-06-22T22:48:13;21.50;43.60
7248;DHT22;3665;51.034;13.642;2023-06-22T22:53:02;21.40;99.90
7248;DHT22;3665;51.034;13.642;2023-06-22T22:57:50;21.10;1.00
7248;DHT22;3665;51.034;13.642;2023-06-22T23:02:39;20.90;1.00
7248;DHT22;3665;51.034;13.642;2023-06-22T23:07:27;20.20;1.00
7248;DHT22;3665;51.034;13.642;2023-06-22T23:12:14;19.20;99.90
7248;DHT22;3665;51.034;13.642;2023-06-22T23:17:01;18.60;1.00
7248;DHT22;3665;51.034;13.642;2023-06-22T23:21:51;18.30;99.90
7248;DHT22;3665;51.034;13.642;2023-06-22T23:26:38;18.10;99.90
7248;DHT22;3665;51.034;13.642;2023-06-22T23:31:28;17.90;99.90
7248;DHT22;3665;51.034;13.642;2023-06-22T23:36:14;17.90;99.90
7248;DHT22;3665;51.034;13.642;2023-06-22T23:41:25;17.90;99.90
7248;DHT22;3665;51.034;13.642;2023-06-22T23:46:20;17.80;99.90
7248;DHT22;3665;51.034;13.642;2023-06-22T23:51:10;17.90;99.90
7248;DHT22;3665;51.034;13.642;2023-06-22T23:55:56;17.90;99.90
